This is the latest recevied weather packets stored in our database for station/object SAVIL. If no packets are shown the sender has not sent any weather packets the latest 1 day(s).
| Time | Temp. | Humidity | Pressure | Rain* | Wind** | Luminosity | Snow |
|---|---|---|---|---|---|---|---|
| 1778112441 | 0.56° C | 87% | 1014.8 hPa | 0 mm | - | - | - |
| 1778104040 | 1.67° C | 79% | 1013.7 hPa | 0 mm | - | - | - |
| 1778094648 | 4.44° C | 63% | 1012.5 hPa | 0 mm | - | - | - |
| 1778088647 | 7.78° C | 44% | 1011.5 hPa | 0 mm | - | - | - |
| 1778086247 | 8.33° C | 41% | 1011.3 hPa | 0 mm | - | - | - |
| 1778082439 | 8.33° C | 40% | 1010.8 hPa | 0 mm | - | - | - |
| 1778074038 | 8.89° C | 33% | 1009.6 hPa | 0 mm | - | - | - |
| 1778069447 | 8.89° C | 31% | 1009.1 hPa | 0 mm | - | - | - |
| 1778068038 | 8.33° C | 32% | 1008.8 hPa | 0 mm | - | - | - |
| 1778065638 | 8.89° C | 32% | 1008.6 hPa | 0 mm | - | - | - |
| 1778063238 | 8.89° C | 36% | 1008.3 hPa | 0 mm | - | - | - |
| 1778062038 | 8.89° C | 37% | 1007.9 hPa | 0 mm | - | - | - |
| 1778060838 | 7.78° C | 40% | 1007.8 hPa | 0 mm | - | - | - |
| 1778052437 | 6.67° C | 46% | 1006.5 hPa | 0 mm | - | - | - |
| 1778051237 | 6.67° C | 47% | 1006.4 hPa | 0 mm | - | - | - |
| 1778050037 | 6.67° C | 48% | 1006.1 hPa | 0 mm | - | - | - |
| 1778048837 | 6.11° C | 49% | 1006 hPa | 0 mm | - | - | - |
| 1778047637 | 5.56° C | 51% | 1005.8 hPa | 0 mm | - | - | - |
| 1778046437 | 5.56° C | 54% | 1005.7 hPa | 0 mm | - | - | - |
| 1778045237 | 5° C | 58% | 1005.6 hPa | 0 mm | - | - | - |
| 1778044037 | 4.44° C | 60% | 1005.4 hPa | 0 mm | - | - | - |
| 1778042837 | 3.89° C | 63% | 1005.3 hPa | 0 mm | - | - | - |
| 1778041637 | 3.33° C | 64% | 1005.2 hPa | 0 mm | - | - | - |
| 1778036836 | 2.78° C | 67% | 1004.5 hPa | 0 mm | - | - | - |
| 1778035636 | 2.22° C | 66% | 1004.3 hPa | 0 mm | - | - | - |
* Rain latest hour (hover to see other rain measurements)
** Current wind speed in m/s (hover to see current wind gust speed)